Time;durP1;ratioP1;P1;durP2;ratioP2;P2;SDS_P1;SDS_P2;PMS_P1;PMS_P2;Temp;Humidity;BMP_temperature;BMP_pressure;BME280_temperature;BME280_humidity;BME280_pressure;Samples;Min_cycle;Max_cycle;Signal;HPM_P1;HPM_P2
2023/07/24 00:00:20;;;;;;;0.10;0.10;;;16.00;99.90;;;;;;4993380;28;20233;-95
2023/07/24 00:02:45;;;;;;;0.10;0.10;;;16.00;99.90;;;;;;4990051;28;20505;-96
2023/07/24 00:05:11;;;;;;;0.10;0.10;;;16.10;99.90;;;;;;4991412;28;20185;-92
2023/07/24 00:07:36;;;;;;;0.10;0.10;;;16.10;99.90;;;;;;4993633;28;20236;-95
2023/07/24 00:10:03;;;;;;;0.10;0.10;;;16.00;99.90;;;;;;4994035;28;20264;-93
2023/07/24 00:12:28;;;;;;;0.20;0.20;;;16.00;99.90;;;;;;4986268;28;20336;-95
2023/07/24 00:14:54;;;;;;;0.10;0.10;;;16.00;99.90;;;;;;4990551;28;20530;-96
2023/07/24 00:17:19;;;;;;;0.10;0.10;;;16.00;99.90;;;;;;4983760;28;20206;-93
2023/07/24 00:19:45;;;;;;;0.10;0.10;;;16.00;99.90;;;;;;4996021;28;20189;-95
2023/07/24 00:22:10;;;;;;;0.10;0.10;;;16.00;99.90;;;;;;4975166;28;20724;-96
2023/07/24 00:24:36;;;;;;;0.20;0.20;;;15.90;99.90;;;;;;4992116;28;20272;-95
2023/07/24 00:27:02;;;;;;;0.10;0.10;;;16.00;99.90;;;;;;4990322;28;20599;-95
2023/07/24 00:29:28;;;;;;;0.10;0.10;;;16.00;99.90;;;;;;4989386;28;20178;-94
2023/07/24 00:31:53;;;;;;;0.10;0.10;;;16.00;99.90;;;;;;4996858;28;20441;-94
2023/07/24 00:34:19;;;;;;;0.10;0.10;;;16.00;99.90;;;;;;4996344;28;20198;-94
2023/07/24 00:36:44;;;;;;;0.10;0.10;;;16.00;99.90;;;;;;4995387;28;20189;-96
2023/07/24 00:39:10;;;;;;;0.10;0.10;;;16.00;99.90;;;;;;4992671;28;20192;-95
2023/07/24 00:41:35;;;;;;;0.10;0.10;;;16.00;99.90;;;;;;4969912;28;20198;-95
2023/07/24 00:44:01;;;;;;;0.10;0.10;;;16.00;99.90;;;;;;4968338;28;20226;-94
2023/07/24 00:46:28;;;;;;;0.10;0.10;;;15.90;99.90;;;;;;4996250;28;20194;-96
2023/07/24 00:48:54;;;;;;;0.10;0.10;;;16.00;99.90;;;;;;4988656;28;20189;-95
2023/07/24 00:51:19;;;;;;;0.10;0.10;;;16.00;99.90;;;;;;4979755;28;20416;-96
2023/07/24 00:53:47;;;;;;;0.10;0.10;;;16.00;99.90;;;;;;4996809;28;20239;-93
2023/07/24 00:56:13;;;;;;;0.10;0.10;;;16.00;99.90;;;;;;4979510;28;20545;-95
2023/07/24 00:58:38;;;;;;;0.10;0.10;;;16.10;99.90;;;;;;4997586;28;20424;-95
2023/07/24 01:01:04;;;;;;;0.10;0.10;;;16.20;99.90;;;;;;4992625;28;20196;-95
2023/07/24 01:03:33;;;;;;;0.10;0.10;;;16.10;99.90;;;;;;4997240;28;20192;-94
2023/07/24 01:06:01;;;;;;;0.10;0.10;;;16.10;99.90;;;;;;4977612;28;20418;-95
2023/07/24 01:08:27;;;;;;;0.10;0.10;;;16.10;99.90;;;;;;4993781;28;20478;-93
2023/07/24 01:10:54;;;;;;;0.10;0.10;;;16.00;99.90;;;;;;4996298;28;20523;-94
2023/07/24 01:13:24;;;;;;;0.10;0.10;;;16.00;99.90;;;;;;4996115;28;20569;-95
2023/07/24 01:16:09;;;;;;;0.10;0.10;;;16.00;99.90;;;;;;4978000;28;20498;-93
2023/07/24 01:18:36;;;;;;;0.10;0.10;;;16.00;99.90;;;;;;4978965;28;20421;-95
2023/07/24 01:21:04;;;;;;;0.10;0.10;;;16.00;99.90;;;;;;4995866;28;20472;-96
2023/07/24 01:23:58;;;;;;;0.10;0.10;;;16.00;99.90;;;;;;4979590;28;20433;-95
2023/07/24 01:26:25;;;;;;;0.10;0.10;;;16.00;99.90;;;;;;4976149;28;20434;-94
2023/07/24 01:28:50;;;;;;;0.10;0.10;;;16.00;99.90;;;;;;4991894;28;20484;-95
2023/07/24 01:31:17;;;;;;;0.10;0.10;;;15.90;99.90;;;;;;4989514;28;20882;-94
2023/07/24 01:33:43;;;;;;;0.10;0.10;;;15.90;99.90;;;;;;4984405;28;20192;-94
2023/07/24 01:36:09;;;;;;;0.10;0.10;;;15.90;99.90;;;;;;4992538;28;20455;-95
2023/07/24 01:38:36;;;;;;;0.10;0.10;;;15.90;99.90;;;;;;4978162;28;21262;-94
2023/07/24 01:41:02;;;;;;;0.10;0.10;;;15.90;99.90;;;;;;4995527;28;20784;-95
2023/07/24 01:43:29;;;;;;;0.10;0.10;;;15.90;99.90;;;;;;4966847;28;20483;-95
2023/07/24 01:45:55;;;;;;;0.10;0.10;;;15.90;99.90;;;;;;4989037;28;20447;-96
2023/07/24 01:48:20;;;;;;;0.10;0.10;;;16.00;99.90;;;;;;4995345;28;20484;-95
2023/07/24 01:50:46;;;;;;;0.10;0.10;;;16.00;99.90;;;;;;4989878;28;20603;-96
2023/07/24 01:53:11;;;;;;;0.10;0.10;;;16.00;99.90;;;;;;4987260;28;20197;-96
2023/07/24 01:55:37;;;;;;;0.10;0.10;;;16.00;99.90;;;;;;4974555;28;20205;-95
2023/07/24 01:58:03;;;;;;;0.10;0.10;;;16.00;99.90;;;;;;4986585;28;20185;-94
2023/07/24 02:00:28;;;;;;;0.10;0.10;;;16.00;99.90;;;;;;4977887;28;20741;-92
2023/07/24 02:02:54;;;;;;;0.10;0.10;;;16.10;99.90;;;;;;4974362;28;20200;-93
2023/07/24 02:05:19;;;;;;;0.10;0.10;;;16.00;99.90;;;;;;4976321;28;20690;-93
2023/07/24 02:07:45;;;;;;;0.10;0.10;;;16.00;99.90;;;;;;4974129;28;20707;-93
2023/07/24 02:10:10;;;;;;;0.10;0.10;;;16.00;99.90;;;;;;4996434;28;20174;-95
2023/07/24 02:12:36;;;;;;;0.10;0.10;;;16.00;99.90;;;;;;4995367;28;20264;-94
2023/07/24 02:15:02;;;;;;;0.10;0.10;;;16.10;99.90;;;;;;4993830;28;20192;-95
2023/07/24 02:17:27;;;;;;;0.10;0.10;;;16.10;99.90;;;;;;4976910;28;20272;-93
2023/07/24 02:19:53;;;;;;;0.10;0.10;;;16.10;99.90;;;;;;4975598;28;20233;-96
2023/07/24 02:22:18;;;;;;;0.07;0.07;;;16.10;99.90;;;;;;4976096;28;20672;-95
2023/07/24 02:24:44;;;;;;;0.10;0.10;;;16.10;99.90;;;;;;4971587;28;21011;-94
2023/07/24 02:27:16;;;;;;;0.10;0.10;;;16.20;99.90;;;;;;4994407;28;20283;-94
2023/07/24 02:29:41;;;;;;;0.10;0.10;;;16.20;99.90;;;;;;4993822;28;20209;-94
2023/07/24 02:32:07;;;;;;;0.10;0.10;;;16.20;99.90;;;;;;4994869;28;20924;-94
2023/07/24 02:34:32;;;;;;;0.10;0.10;;;16.20;99.90;;;;;;4992237;28;20212;-93
2023/07/24 02:36:58;;;;;;;0.10;0.10;;;16.20;99.90;;;;;;4970783;28;20204;-95
2023/07/24 02:39:23;;;;;;;0.10;0.10;;;16.30;99.90;;;;;;4993057;28;20247;-96
2023/07/24 02:41:49;;;;;;;0.10;0.10;;;16.30;99.90;;;;;;4993581;28;20649;-95
2023/07/24 02:44:14;;;;;;;0.10;0.10;;;16.40;99.90;;;;;;4994781;28;20236;-96
2023/07/24 02:46:40;;;;;;;0.10;0.10;;;16.40;99.90;;;;;;4975983;28;20206;-95
2023/07/24 02:49:06;;;;;;;0.10;0.10;;;16.50;99.90;;;;;;4985996;28;20207;-96
2023/07/24 02:51:31;;;;;;;0.10;0.10;;;16.50;99.90;;;;;;4993822;28;20701;-96
2023/07/24 02:53:56;;;;;;;0.10;0.10;;;16.50;99.90;;;;;;4974847;28;20188;-96
2023/07/24 02:56:22;;;;;;;0.10;0.10;;;16.60;99.90;;;;;;4958388;28;20200;-96
2023/07/24 02:58:47;;;;;;;0.10;0.10;;;16.60;99.90;;;;;;4977253;28;20178;-93
2023/07/24 03:01:14;;;;;;;0.10;0.10;;;16.60;99.90;;;;;;4984819;28;20197;-94
2023/07/24 03:03:41;;;;;;;0.10;0.10;;;16.50;99.90;;;;;;4994760;28;20657;-96
2023/07/24 03:06:07;;;;;;;0.10;0.10;;;16.50;99.90;;;;;;4990411;28;20503;-96
2023/07/24 03:08:33;;;;;;;0.00;0.00;;;16.60;99.90;;;;;;4994910;28;20472;-96
2023/07/24 03:10:59;;;;;;;0.10;0.10;;;16.60;99.90;;;;;;4994810;28;20181;-96
2023/07/24 03:13:25;;;;;;;0.10;0.10;;;16.60;99.90;;;;;;4995556;28;20232;-96
2023/07/24 03:15:55;;;;;;;0.10;0.10;;;16.60;99.90;;;;;;4994434;28;20428;-96
2023/07/24 03:18:20;;;;;;;0.10;0.10;;;16.60;99.90;;;;;;4996309;28;20177;-95
2023/07/24 03:20:46;;;;;;;0.10;0.10;;;16.60;99.90;;;;;;4994016;28;21091;-96
2023/07/24 03:23:11;;;;;;;0.10;0.10;;;16.60;99.90;;;;;;4993830;28;20193;-96
2023/07/24 03:25:37;;;;;;;0.00;0.00;;;16.60;99.90;;;;;;4978800;28;20652;-95
2023/07/24 03:28:02;;;;;;;0.10;0.10;;;16.70;99.90;;;;;;4994893;28;20300;-96
2023/07/24 03:30:28;;;;;;;0.00;0.00;;;16.70;99.90;;;;;;4995183;28;20239;-95
2023/07/24 03:32:53;;;;;;;0.00;0.00;;;16.70;99.90;;;;;;4992025;28;20205;-95
2023/07/24 03:35:19;;;;;;;0.10;0.10;;;16.70;99.90;;;;;;4994333;28;20197;-96
2023/07/24 03:37:44;;;;;;;0.10;0.10;;;16.70;99.90;;;;;;4992253;28;20334;-96
2023/07/24 03:40:10;;;;;;;0.10;0.10;;;16.70;99.90;;;;;;4998041;28;20213;-96
2023/07/24 03:42:36;;;;;;;0.10;0.10;;;16.70;99.90;;;;;;4992805;28;20553;-94
2023/07/24 03:45:01;;;;;;;0.20;0.20;;;16.70;99.90;;;;;;4995003;28;20488;-96
2023/07/24 03:47:27;;;;;;;0.30;0.30;;;16.60;99.90;;;;;;4989707;28;20276;-94
2023/07/24 03:49:52;;;;;;;0.20;0.20;;;16.70;99.90;;;;;;4997517;28;20189;-94
2023/07/24 03:52:18;;;;;;;0.30;0.30;;;16.60;99.90;;;;;;4981662;28;20584;-95
2023/07/24 03:54:44;;;;;;;0.13;0.13;;;16.70;99.90;;;;;;4989382;28;20189;-96
2023/07/24 03:57:09;;;;;;;0.10;0.10;;;16.70;99.90;;;;;;4982404;28;20201;-96
2023/07/24 03:59:36;;;;;;;0.00;0.00;;;16.70;99.90;;;;;;4989133;28;20454;-93
2023/07/24 04:02:01;;;;;;;0.10;0.10;;;16.70;99.90;;;;;;4999068;28;20213;-96
2023/07/24 04:04:27;;;;;;;0.00;0.00;;;16.70;99.90;;;;;;4999631;28;20451;-96
2023/07/24 04:06:52;;;;;;;0.10;0.10;;;16.70;99.90;;;;;;5002041;28;20327;-95
2023/07/24 04:09:18;;;;;;;0.00;0.00;;;16.70;99.90;;;;;;4999682;28;20208;-95
2023/07/24 04:11:44;;;;;;;0.10;0.10;;;16.70;99.90;;;;;;4999598;28;20189;-94
2023/07/24 04:14:10;;;;;;;0.00;0.00;;;16.70;99.90;;;;;;5001612;28;20186;-95
2023/07/24 04:16:36;;;;;;;0.10;0.10;;;16.70;99.90;;;;;;4999162;28;20483;-95
2023/07/24 04:19:01;;;;;;;0.10;0.10;;;16.80;99.90;;;;;;4982921;28;20470;-95
2023/07/24 04:21:27;;;;;;;0.20;0.20;;;16.80;99.90;;;;;;4998605;28;20280;-95
2023/07/24 04:23:52;;;;;;;0.20;0.20;;;16.80;99.90;;;;;;4991068;28;20186;-93
2023/07/24 04:26:18;;;;;;;0.40;0.40;;;16.70;99.90;;;;;;4992015;28;20253;-95
2023/07/24 04:28:43;;;;;;;0.20;0.20;;;16.80;99.90;;;;;;4995694;28;20211;-95
2023/07/24 04:31:09;;;;;;;0.40;0.40;;;16.80;99.90;;;;;;5000419;28;20189;-96
2023/07/24 04:33:34;;;;;;;0.43;0.43;;;16.80;99.90;;;;;;4990081;28;20678;-96
2023/07/24 04:36:00;;;;;;;0.40;0.40;;;16.70;99.90;;;;;;4987834;28;20712;-96
2023/07/24 04:38:26;;;;;;;0.47;0.47;;;16.70;99.90;;;;;;5000045;28;20180;-96
2023/07/24 04:40:51;;;;;;;0.47;0.47;;;16.80;99.90;;;;;;4994830;28;20189;-95
2023/07/24 04:43:17;;;;;;;0.70;0.70;;;16.80;99.90;;;;;;4982815;28;20233;-96
2023/07/24 04:45:42;;;;;;;0.27;0.27;;;16.80;99.90;;;;;;4990210;28;20233;-96
2023/07/24 04:48:08;;;;;;;0.60;0.60;;;16.80;99.90;;;;;;4995591;28;20216;-96
2023/07/24 04:50:33;;;;;;;0.57;0.57;;;16.80;99.90;;;;;;4996980;28;20204;-94
2023/07/24 04:52:59;;;;;;;0.60;0.60;;;16.80;99.90;;;;;;4987227;28;20205;-96
2023/07/24 04:55:25;;;;;;;0.50;0.50;;;16.80;99.90;;;;;;4991400;28;20269;-96
2023/07/24 04:57:50;;;;;;;0.50;0.50;;;16.90;99.90;;;;;;5002265;28;20177;-95
2023/07/24 05:00:16;;;;;;;0.40;0.40;;;16.80;99.90;;;;;;5008706;28;20212;-96
2023/07/24 05:02:41;;;;;;;0.40;0.40;;;16.80;99.90;;;;;;4997715;28;20205;-96
2023/07/24 05:05:07;;;;;;;0.80;0.80;;;16.90;99.90;;;;;;4995416;28;20189;-94
2023/07/24 05:07:33;;;;;;;0.70;0.70;;;16.90;99.90;;;;;;4988765;28;20291;-96
2023/07/24 05:09:59;;;;;;;0.70;0.70;;;17.00;99.90;;;;;;4974909;28;20961;-96
2023/07/24 05:12:24;;;;;;;0.57;0.57;;;16.90;99.90;;;;;;4995611;28;20193;-95
2023/07/24 05:14:50;;;;;;;0.50;0.50;;;16.90;99.90;;;;;;4994801;28;20182;-93
2023/07/24 05:17:16;;;;;;;0.50;0.50;;;17.00;99.90;;;;;;4975959;28;20696;-94
2023/07/24 05:19:41;;;;;;;0.40;0.40;;;17.10;99.90;;;;;;4996988;28;20189;-93
2023/07/24 05:22:07;;;;;;;0.67;0.67;;;17.10;99.90;;;;;;4992623;28;20225;-91
2023/07/24 05:24:33;;;;;;;0.63;0.63;;;17.10;99.90;;;;;;4995932;28;20189;-91
2023/07/24 05:26:58;;;;;;;1.10;1.10;;;17.10;99.90;;;;;;4995810;28;20475;-94
2023/07/24 05:29:24;;;;;;;0.40;0.40;;;17.10;99.90;;;;;;4997113;28;20581;-93
2023/07/24 05:31:50;;;;;;;0.40;0.40;;;17.10;99.90;;;;;;4991310;28;20197;-93
2023/07/24 05:34:15;;;;;;;0.83;0.83;;;17.10;99.90;;;;;;4973733;28;20192;-88
2023/07/24 05:36:41;;;;;;;0.67;0.67;;;17.10;99.90;;;;;;4993569;28;20245;-92
2023/07/24 05:39:08;;;;;;;0.90;0.90;;;17.10;99.90;;;;;;4996998;28;20215;-96
2023/07/24 05:41:33;;;;;;;0.80;0.80;;;17.10;99.90;;;;;;4998097;28;21295;-96
2023/07/24 05:43:59;;;;;;;0.73;0.73;;;17.10;99.90;;;;;;4992384;28;20268;-94
2023/07/24 05:46:24;;;;;;;1.00;1.00;;;17.10;99.90;;;;;;4996593;28;20197;-92
2023/07/24 05:48:50;;;;;;;1.00;1.00;;;17.10;99.90;;;;;;4996505;28;20197;-93
2023/07/24 05:51:15;;;;;;;0.83;0.83;;;17.10;99.90;;;;;;4995992;28;20547;-92
2023/07/24 05:53:40;;;;;;;0.40;0.40;;;17.10;99.90;;;;;;4998179;28;20192;-93
2023/07/24 05:56:06;;;;;;;0.90;0.90;;;17.10;99.90;;;;;;4993980;28;20208;-93
2023/07/24 05:58:32;;;;;;;1.30;1.30;;;17.10;99.90;;;;;;4996323;28;20204;-94
2023/07/24 06:00:57;;;;;;;0.30;0.30;;;17.20;99.90;;;;;;4975751;28;20185;-95
2023/07/24 06:03:23;;;;;;;0.00;0.00;;;17.20;99.90;;;;;;4991227;28;20220;-93
2023/07/24 06:05:56;;;;;;;0.10;0.10;;;17.20;99.90;;;;;;4986266;28;20189;-92
2023/07/24 06:08:21;;;;;;;0.20;0.20;;;17.30;99.90;;;;;;4989344;28;20485;-93
2023/07/24 06:10:48;;;;;;;0.00;0.00;;;17.30;99.90;;;;;;4995871;28;20454;-96
2023/07/24 06:13:17;;;;;;;0.40;0.40;;;17.30;99.90;;;;;;4995026;28;20220;-93
2023/07/24 06:15:43;;;;;;;0.67;0.67;;;17.40;99.90;;;;;;4993842;28;20502;-94
2023/07/24 06:18:10;;;;;;;0.80;0.80;;;17.40;99.90;;;;;;4991925;28;20938;-96
2023/07/24 06:20:36;;;;;;;0.60;0.60;;;17.40;99.90;;;;;;4982786;28;20193;-95
2023/07/24 06:23:03;;;;;;;0.40;0.40;;;17.40;99.90;;;;;;4981475;28;20498;-92
2023/07/24 06:25:30;;;;;;;0.40;0.40;;;17.40;99.90;;;;;;4995186;28;20204;-93
2023/07/24 06:27:55;;;;;;;0.50;0.50;;;17.50;99.90;;;;;;4984232;28;20481;-95
2023/07/24 06:30:21;;;;;;;0.57;0.57;;;17.50;99.90;;;;;;4994448;28;20479;-93
2023/07/24 06:32:46;;;;;;;0.60;0.60;;;17.50;99.90;;;;;;4986630;28;20275;-93
2023/07/24 06:35:12;;;;;;;0.67;0.67;;;17.50;99.90;;;;;;4990928;28;20181;-96
2023/07/24 06:37:37;;;;;;;0.70;0.70;;;17.50;99.90;;;;;;4995232;28;20192;-94
2023/07/24 06:40:04;;;;;;;0.70;0.70;;;17.50;99.90;;;;;;4990688;28;20181;-96
2023/07/24 06:42:29;;;;;;;0.80;0.80;;;17.50;99.90;;;;;;4989559;28;20187;-96
2023/07/24 06:44:55;;;;;;;0.50;0.50;;;17.50;99.90;;;;;;4980103;28;20883;-96
2023/07/24 06:47:20;;;;;;;0.83;0.83;;;17.50;99.90;;;;;;4996195;28;20205;-95
2023/07/24 06:49:46;;;;;;;0.50;0.50;;;17.50;99.90;;;;;;4993046;28;20646;-96
2023/07/24 06:52:12;;;;;;;0.80;0.80;;;17.40;99.90;;;;;;4993855;28;20239;-95
2023/07/24 06:54:37;;;;;;;0.50;0.50;;;17.50;99.90;;;;;;4988825;28;20486;-94
2023/07/24 06:57:03;;;;;;;0.50;0.50;;;17.60;99.90;;;;;;4995135;28;20181;-94
2023/07/24 06:59:29;;;;;;;0.57;0.57;;;17.60;99.90;;;;;;4978671;28;20184;-95
2023/07/24 07:01:54;;;;;;;1.00;1.00;;;17.70;99.90;;;;;;4987197;28;20251;-94
2023/07/24 07:04:20;;;;;;;0.80;0.80;;;17.70;99.90;;;;;;4988157;28;20271;-94
2023/07/24 07:06:45;;;;;;;0.60;0.60;;;17.70;99.90;;;;;;4994975;28;20673;-94
2023/07/24 07:09:11;;;;;;;0.40;0.40;;;17.70;99.90;;;;;;4993817;28;20204;-94
2023/07/24 07:11:37;;;;;;;0.37;0.37;;;17.70;99.90;;;;;;4977664;28;20251;-95
2023/07/24 07:14:02;;;;;;;0.47;0.47;;;17.70;99.90;;;;;;4969886;28;20457;-96
2023/07/24 07:16:27;;;;;;;0.70;0.70;;;17.70;99.90;;;;;;4985776;28;20189;-95
2023/07/24 07:18:53;;;;;;;0.50;0.50;;;17.70;99.90;;;;;;4979902;28;20194;-95
2023/07/24 07:21:18;;;;;;;0.60;0.60;;;17.70;99.90;;;;;;4985566;28;20216;-96
2023/07/24 07:23:44;;;;;;;0.50;0.50;;;17.70;99.90;;;;;;4977734;28;20238;-95
2023/07/24 07:26:09;;;;;;;0.40;0.40;;;17.70;99.90;;;;;;4995994;28;20197;-96
2023/07/24 07:28:35;;;;;;;0.33;0.33;;;17.80;99.90;;;;;;4995773;28;20227;-94
2023/07/24 07:31:00;;;;;;;0.33;0.33;;;17.80;99.90;;;;;;4992008;28;20181;-96
2023/07/24 07:33:26;;;;;;;0.70;0.70;;;17.80;99.90;;;;;;5000712;28;20185;-94
2023/07/24 07:35:51;;;;;;;1.07;1.07;;;17.80;99.90;;;;;;4992310;28;20556;-96
2023/07/24 07:38:17;;;;;;;0.33;0.33;;;17.90;99.90;;;;;;4996561;28;20223;-95
2023/07/24 07:40:42;;;;;;;0.30;0.30;;;17.90;99.90;;;;;;4983219;28;20190;-96
2023/07/24 07:43:08;;;;;;;0.70;0.70;;;18.00;99.90;;;;;;4996971;28;20237;-96
2023/07/24 07:45:33;;;;;;;0.50;0.50;;;18.10;99.90;;;;;;4997506;28;20639;-96
2023/07/24 07:48:00;;;;;;;0.77;0.77;;;18.10;99.90;;;;;;4983463;28;20229;-94
2023/07/24 07:50:25;;;;;;;0.53;0.53;;;18.10;99.90;;;;;;4989089;28;20185;-95
2023/07/24 07:52:52;;;;;;;0.40;0.40;;;18.10;99.90;;;;;;4993004;28;20819;-95
2023/07/24 07:55:18;;;;;;;0.10;0.10;;;18.00;99.90;;;;;;4997859;28;20177;-96
2023/07/24 07:57:44;;;;;;;1.10;1.10;;;18.00;99.90;;;;;;4991362;28;20476;-89
2023/07/24 08:00:10;;;;;;;0.43;0.43;;;17.90;99.90;;;;;;4992147;28;20527;-92
2023/07/24 08:02:39;;;;;;;0.60;0.60;;;17.90;99.90;;;;;;4988804;28;20260;-96
2023/07/24 08:05:07;;;;;;;0.43;0.43;;;17.90;99.90;;;;;;4994443;28;20536;-95
2023/07/24 08:22:24;;;;;;;1.00;1.00;;;17.60;99.90;;;;;;5130890;27;20657;-96
2023/07/24 08:24:51;;;;;;;0.73;0.73;;;17.50;99.90;;;;;;5116435;27;20466;-96
2023/07/24 08:27:17;;;;;;;0.60;0.60;;;17.40;99.90;;;;;;5123817;27;20256;-96
2023/07/24 08:29:42;;;;;;;0.70;0.70;;;17.40;99.90;;;;;;5126383;27;20446;-96
2023/07/24 08:32:08;;;;;;;0.40;0.40;;;17.40;99.90;;;;;;5133277;27;20549;-95
2023/07/24 08:34:33;;;;;;;0.30;0.30;;;17.50;99.90;;;;;;5139649;27;20196;-94
2023/07/24 08:37:04;;;;;;;0.50;0.50;;;17.60;99.90;;;;;;5126243;27;20290;-94
2023/07/24 08:39:31;;;;;;;0.47;0.47;;;17.60;99.90;;;;;;5122829;27;20191;-95
2023/07/24 08:41:56;;;;;;;0.33;0.33;;;17.60;99.90;;;;;;5131474;27;20479;-95
2023/07/24 08:44:25;;;;;;;0.30;0.30;;;17.70;99.90;;;;;;5133898;27;20463;-95
2023/07/24 08:46:51;;;;;;;0.60;0.60;;;17.60;99.90;;;;;;5127444;27;20185;-96
2023/07/24 08:49:18;;;;;;;0.30;0.30;;;17.70;99.90;;;;;;5132288;27;20449;-96
2023/07/24 08:51:45;;;;;;;0.40;0.40;;;17.70;99.90;;;;;;5126041;27;20514;-96
2023/07/24 08:54:11;;;;;;;0.20;0.20;;;17.80;99.90;;;;;;5108624;28;21031;-92
2023/07/24 08:56:39;;;;;;;0.20;0.20;;;17.80;99.90;;;;;;5109709;28;20432;-93
2023/07/24 08:59:05;;;;;;;0.50;0.50;;;17.80;99.90;;;;;;5117860;28;20917;-96
2023/07/24 09:01:31;;;;;;;0.50;0.50;;;17.80;99.90;;;;;;5127507;28;20528;-96
2023/07/24 09:03:57;;;;;;;0.70;0.70;;;17.80;99.90;;;;;;5134364;27;20321;-96
2023/07/24 09:06:22;;;;;;;0.50;0.50;;;17.80;99.90;;;;;;5118150;27;20217;-96
2023/07/24 09:08:48;;;;;;;0.30;0.30;;;17.80;99.90;;;;;;5127818;27;20184;-94
2023/07/24 09:11:14;;;;;;;0.20;0.20;;;17.90;99.90;;;;;;5113077;28;20651;-94
2023/07/24 09:13:41;;;;;;;0.30;0.30;;;17.90;99.90;;;;;;5114804;27;20196;-96
2023/07/24 09:16:07;;;;;;;0.47;0.47;;;18.00;99.90;;;;;;5120667;27;20528;-96
2023/07/24 09:18:42;;;;;;;0.30;0.30;;;18.10;99.90;;;;;;5103874;27;20917;-96
2023/07/24 09:21:09;;;;;;;0.30;0.30;;;18.20;99.90;;;;;;5117651;27;20319;-96
2023/07/24 09:23:34;;;;;;;0.50;0.50;;;18.20;99.90;;;;;;5113124;27;20581;-96
2023/07/24 09:26:05;;;;;;;0.50;0.50;;;18.20;99.90;;;;;;5096888;28;20958;-96
2023/07/24 09:28:31;;;;;;;0.50;0.50;;;18.40;99.90;;;;;;5118724;27;20702;-95
2023/07/24 09:31:00;;;;;;;0.53;0.53;;;18.60;99.90;;;;;;5122449;27;21111;-96
2023/07/24 09:33:40;;;;;;;1.40;1.40;;;18.80;99.90;;;;;;5095004;27;20791;-96
2023/07/24 09:36:08;;;;;;;0.40;0.40;;;19.00;99.90;;;;;;5123489;27;20477;-96
2023/07/24 09:38:34;;;;;;;1.10;1.10;;;19.10;99.90;;;;;;5085555;28;20473;-94
2023/07/24 09:41:01;;;;;;;1.10;1.10;;;19.30;99.90;;;;;;5101320;28;20474;-94
2023/07/24 09:43:28;;;;;;;1.00;1.00;;;19.20;99.90;;;;;;5119694;28;20211;-96
2023/07/24 09:45:54;;;;;;;0.70;0.70;;;19.10;99.90;;;;;;5111575;28;20469;-96
2023/07/24 09:48:22;;;;;;;0.67;0.67;;;19.10;99.90;;;;;;5109621;22;20530;-94
2023/07/24 09:50:54;;;;;;;0.60;0.60;;;18.90;99.90;;;;;;5068555;28;20445;-96
2023/07/24 09:53:19;;;;;;;0.70;0.70;;;18.80;99.90;;;;;;5078825;28;20468;-96
2023/07/24 09:55:55;;;;;;;1.13;1.13;;;18.80;99.90;;;;;;5068508;28;20958;-96
2023/07/24 09:58:21;;;;;;;0.70;0.70;;;18.70;99.90;;;;;;5085500;28;20197;-96
2023/07/24 10:00:48;;;;;;;0.90;0.90;;;18.80;99.90;;;;;;5079445;28;20466;-96
2023/07/24 10:03:15;;;;;;;0.93;0.93;;;19.00;99.90;;;;;;5083173;28;20428;-96
2023/07/24 10:05:43;;;;;;;1.47;1.47;;;19.20;99.90;;;;;;5078973;28;20444;-96
2023/07/24 10:08:13;;;;;;;0.50;0.50;;;19.30;99.90;;;;;;5078168;28;20443;-96
2023/07/24 10:10:39;;;;;;;0.60;0.60;;;19.50;99.90;;;;;;5075929;28;20519;-96
2023/07/24 10:13:06;;;;;;;1.00;1.00;;;19.90;99.90;;;;;;5074926;28;20480;-96
2023/07/24 10:15:32;;;;;;;0.60;0.60;;;19.80;99.90;;;;;;5077274;28;20182;-96
2023/07/24 10:18:06;;;;;;;0.30;0.30;;;20.20;99.90;;;;;;5074952;28;20527;-96
2023/07/24 10:23:01;;;;;;;0.60;0.60;;;20.80;99.90;;;;;;5109341;22;20495;-96
2023/07/24 10:25:31;;;;;;;0.83;0.83;;;20.60;99.90;;;;;;5075473;28;20193;-90
2023/07/24 10:28:02;;;;;;;0.50;0.50;;;20.80;99.90;;;;;;5078419;28;20473;-88
2023/07/24 10:30:30;;;;;;;1.00;1.00;;;20.50;99.90;;;;;;5086567;28;20447;-90
2023/07/24 10:33:07;;;;;;;1.13;1.13;;;20.30;99.90;;;;;;5085942;28;20512;-87
2023/07/24 10:35:39;;;;;;;1.67;1.67;;;19.90;99.90;;;;;;5084142;28;20452;-89
2023/07/24 10:38:06;;;;;;;1.53;1.53;;;19.80;99.90;;;;;;5078039;28;21137;-90
2023/07/24 10:40:33;;;;;;;1.23;1.23;;;19.70;99.90;;;;;;5088829;28;20797;-90
2023/07/24 10:43:06;;;;;;;1.03;1.03;;;19.80;99.90;;;;;;5089135;28;20447;-91
2023/07/24 10:45:52;;;;;;;1.00;1.00;;;20.20;99.90;;;;;;5083221;28;20439;-93
2023/07/24 10:48:19;;;;;;;0.60;0.60;;;21.40;99.90;;;;;;5092687;28;20435;-91
2023/07/24 10:50:47;;;;;;;0.30;0.30;;;21.50;99.90;;;;;;5089618;28;20439;-89
2023/07/24 10:53:17;;;;;;;0.50;0.50;;;21.30;99.90;;;;;;5090430;28;20419;-91
2023/07/24 10:55:44;;;;;;;0.10;0.10;;;21.70;99.90;;;;;;5099177;28;20587;-90
2023/07/24 10:58:11;;;;;;;0.20;0.20;;;21.90;99.90;;;;;;5079539;28;20419;-89
2023/07/24 11:00:36;;;;;;;0.50;0.50;;;21.80;99.90;;;;;;5072859;28;20451;-89
2023/07/24 11:03:03;;;;;;;1.30;1.30;;;21.50;99.90;;;;;;5089811;28;20494;-91
2023/07/24 11:05:28;;;;;;;1.00;1.00;;;21.30;99.90;;;;;;5089524;28;20173;-91
2023/07/24 11:07:55;;;;;;;0.33;0.33;;;21.10;99.90;;;;;;5089931;28;20593;-90
2023/07/24 11:10:22;;;;;;;0.20;0.20;;;20.70;99.90;;;;;;5088430;28;20196;-90
2023/07/24 11:12:50;;;;;;;0.30;0.30;;;20.50;99.90;;;;;;5082540;28;20439;-89
2023/07/24 11:15:15;;;;;;;0.50;0.50;;;20.40;99.90;;;;;;5085503;28;20439;-90
2023/07/24 11:17:42;;;;;;;0.10;0.10;;;20.30;99.90;;;;;;5087207;28;20446;-91
2023/07/24 11:20:10;;;;;;;0.80;0.80;;;20.10;99.90;;;;;;5087218;28;20181;-90
2023/07/24 11:22:37;;;;;;;0.53;0.53;;;20.10;99.90;;;;;;5082394;28;20467;-90
2023/07/24 11:25:04;;;;;;;0.27;0.27;;;20.10;99.90;;;;;;5089403;28;21020;-89
2023/07/24 11:27:30;;;;;;;0.60;0.60;;;20.50;99.90;;;;;;5078715;28;20438;-90
2023/07/24 11:29:55;;;;;;;0.67;0.67;;;21.80;99.90;;;;;;5090186;28;20431;-91
2023/07/24 11:32:21;;;;;;;0.60;0.60;;;23.10;99.90;;;;;;5087598;28;20177;-90
2023/07/24 11:34:48;;;;;;;0.40;0.40;;;23.00;99.90;;;;;;5091135;28;20641;-91
2023/07/24 11:37:15;;;;;;;0.30;0.30;;;22.60;99.90;;;;;;5071385;28;20439;-91
2023/07/24 11:39:40;;;;;;;0.20;0.20;;;21.60;99.90;;;;;;5089414;28;20466;-90
2023/07/24 11:42:06;;;;;;;0.30;0.30;;;21.10;99.90;;;;;;5091289;28;20879;-89
2023/07/24 11:44:32;;;;;;;0.27;0.27;;;20.90;99.90;;;;;;5090692;28;20172;-90
2023/07/24 11:47:05;;;;;;;0.47;0.47;;;20.80;99.90;;;;;;5086400;28;20808;-90
2023/07/24 11:49:32;;;;;;;0.60;0.60;;;21.30;99.90;;;;;;5087052;28;20263;-89
2023/07/24 11:52:05;;;;;;;0.40;0.40;;;21.40;99.90;;;;;;5080624;28;20441;-88
2023/07/24 11:54:33;;;;;;;0.27;0.27;;;21.00;99.90;;;;;;5082521;28;20500;-89
2023/07/24 11:56:59;;;;;;;0.20;0.20;;;21.10;99.90;;;;;;5078242;28;20493;-89
2023/07/24 11:59:24;;;;;;;0.10;0.10;;;22.30;99.90;;;;;;5082019;28;20442;-89
2023/07/24 12:01:50;;;;;;;0.30;0.30;;;23.80;99.90;;;;;;5078192;28;20218;-92
2023/07/24 12:04:16;;;;;;;0.20;0.20;;;25.00;99.90;;;;;;5086591;28;20264;-88
2023/07/24 12:06:42;;;;;;;0.10;0.10;;;25.60;99.90;;;;;;5084660;28;20184;-88
2023/07/24 12:09:10;;;;;;;0.10;0.10;;;25.10;99.90;;;;;;5082328;28;20438;-89
2023/07/24 12:11:43;;;;;;;0.00;0.00;;;24.20;99.90;;;;;;5089652;28;20181;-91
2023/07/24 12:14:09;;;;;;;0.00;0.00;;;23.90;99.90;;;;;;5087714;28;20447;-88
2023/07/24 12:16:35;;;;;;;0.27;0.27;;;23.60;99.90;;;;;;5084355;28;20446;-89
2023/07/24 12:19:01;;;;;;;0.00;0.00;;;23.30;99.90;;;;;;5087331;28;20192;-90
2023/07/24 12:21:26;;;;;;;0.00;0.00;;;22.60;99.90;;;;;;5087517;28;20486;-89
2023/07/24 12:23:52;;;;;;;0.10;0.10;;;21.80;99.90;;;;;;5078315;28;20268;-90
2023/07/24 12:26:17;;;;;;;0.00;0.00;;;21.40;99.90;;;;;;5089298;28;20326;-91
2023/07/24 12:28:43;;;;;;;0.10;0.10;;;20.80;99.90;;;;;;5087538;28;20165;-91
2023/07/24 12:31:08;;;;;;;0.10;0.10;;;20.70;99.90;;;;;;5086617;28;20602;-91
2023/07/24 12:33:34;;;;;;;0.33;0.33;;;20.50;99.90;;;;;;5090244;28;20200;-91
2023/07/24 12:36:01;;;;;;;0.30;0.30;;;20.40;99.90;;;;;;5078748;28;20319;-92
2023/07/24 12:38:28;;;;;;;0.80;0.80;;;20.50;99.90;;;;;;5088552;28;20181;-92
2023/07/24 12:40:53;;;;;;;1.00;1.00;;;20.50;99.90;;;;;;5074655;28;20479;-94
2023/07/24 12:43:19;;;;;;;0.60;0.60;;;20.30;99.90;;;;;;5093092;28;20474;-95
2023/07/24 12:45:44;;;;;;;0.30;0.30;;;20.20;99.90;;;;;;5091217;28;20189;-94
2023/07/24 12:48:10;;;;;;;0.40;0.40;;;20.20;99.90;;;;;;5098192;28;20181;-96
2023/07/24 12:50:35;;;;;;;0.60;0.60;;;20.70;99.90;;;;;;5088618;28;20546;-93
2023/07/24 12:53:01;;;;;;;0.30;0.30;;;20.90;99.90;;;;;;5089306;28;20665;-95
2023/07/24 12:55:27;;;;;;;0.50;0.50;;;21.30;99.90;;;;;;5076461;28;20178;-95
2023/07/24 12:57:53;;;;;;;0.60;0.60;;;22.70;99.90;;;;;;5088602;28;20260;-96
2023/07/24 13:00:18;;;;;;;0.37;0.37;;;23.70;99.90;;;;;;5088871;28;20477;-91